sensor_id;sensor_type;location;lat;lon;timestamp;temperature;humidity
38902;DHT22;24661;53.566;9.910;2023-07-13T00:01:12;15.80;99.90
38902;DHT22;24661;53.566;9.910;2023-07-13T00:03:38;15.80;99.90
38902;DHT22;24661;53.566;9.910;2023-07-13T00:06:07;15.80;99.90
38902;DHT22;24661;53.566;9.910;2023-07-13T00:08:33;15.70;99.90
38902;DHT22;24661;53.566;9.910;2023-07-13T00:10:59;15.70;99.90
38902;DHT22;24661;53.566;9.910;2023-07-13T00:13:25;15.70;99.90
38902;DHT22;24661;53.566;9.910;2023-07-13T00:15:51;15.70;99.90
38902;DHT22;24661;53.566;9.910;2023-07-13T00:18:17;15.70;99.90
38902;DHT22;24661;53.566;9.910;2023-07-13T00:20:42;15.70;99.90
38902;DHT22;24661;53.566;9.910;2023-07-13T00:23:08;15.70;99.90
38902;DHT22;24661;53.566;9.910;2023-07-13T00:25:34;15.60;99.90
38902;DHT22;24661;53.566;9.910;2023-07-13T00:28:00;15.60;99.90
38902;DHT22;24661;53.566;9.910;2023-07-13T00:30:25;15.50;99.90
38902;DHT22;24661;53.566;9.910;2023-07-13T00:32:51;15.50;99.90
38902;DHT22;24661;53.566;9.910;2023-07-13T00:35:17;15.50;99.90
38902;DHT22;24661;53.566;9.910;2023-07-13T00:37:43;15.40;99.90
38902;DHT22;24661;53.566;9.910;2023-07-13T00:40:12;15.40;99.90
38902;DHT22;24661;53.566;9.910;2023-07-13T00:42:38;15.40;99.90
38902;DHT22;24661;53.566;9.910;2023-07-13T00:47:40;15.40;99.90
38902;DHT22;24661;53.566;9.910;2023-07-13T00:50:12;15.40;99.90
38902;DHT22;24661;53.566;9.910;2023-07-13T00:52:42;15.40;99.90
38902;DHT22;24661;53.566;9.910;2023-07-13T00:55:09;15.30;99.90
38902;DHT22;24661;53.566;9.910;2023-07-13T00:57:36;15.40;99.90
38902;DHT22;24661;53.566;9.910;2023-07-13T01:00:04;15.30;99.90
38902;DHT22;24661;53.566;9.910;2023-07-13T01:02:32;15.40;99.90
38902;DHT22;24661;53.566;9.910;2023-07-13T01:04:58;15.30;99.90
38902;DHT22;24661;53.566;9.910;2023-07-13T01:07:24;15.40;99.90
38902;DHT22;24661;53.566;9.910;2023-07-13T01:09:50;15.30;99.90
38902;DHT22;24661;53.566;9.910;2023-07-13T01:12:16;15.30;99.90
38902;DHT22;24661;53.566;9.910;2023-07-13T01:14:41;15.30;99.90
38902;DHT22;24661;53.566;9.910;2023-07-13T01:17:10;15.30;99.90
38902;DHT22;24661;53.566;9.910;2023-07-13T01:19:44;15.30;99.90
38902;DHT22;24661;53.566;9.910;2023-07-13T01:22:19;15.40;99.90
38902;DHT22;24661;53.566;9.910;2023-07-13T01:24:50;15.40;99.90
38902;DHT22;24661;53.566;9.910;2023-07-13T01:27:20;15.40;99.90
38902;DHT22;24661;53.566;9.910;2023-07-13T01:29:47;15.40;99.90
38902;DHT22;24661;53.566;9.910;2023-07-13T01:32:22;15.40;99.90
38902;DHT22;24661;53.566;9.910;2023-07-13T01:34:52;15.30;99.90
38902;DHT22;24661;53.566;9.910;2023-07-13T01:37:20;15.30;99.90
38902;DHT22;24661;53.566;9.910;2023-07-13T01:42:49;15.30;99.90
38902;DHT22;24661;53.566;9.910;2023-07-13T01:45:15;15.30;99.90
38902;DHT22;24661;53.566;9.910;2023-07-13T01:47:40;15.30;99.90
38902;DHT22;24661;53.566;9.910;2023-07-13T01:50:06;15.30;99.90
38902;DHT22;24661;53.566;9.910;2023-07-13T01:52:31;15.20;99.90
38902;DHT22;24661;53.566;9.910;2023-07-13T01:54:57;15.20;99.90
38902;DHT22;24661;53.566;9.910;2023-07-13T01:57:23;15.20;99.90
38902;DHT22;24661;53.566;9.910;2023-07-13T01:59:48;15.20;99.90
38902;DHT22;24661;53.566;9.910;2023-07-13T02:02:14;15.20;99.90
38902;DHT22;24661;53.566;9.910;2023-07-13T02:04:40;15.10;99.90
38902;DHT22;24661;53.566;9.910;2023-07-13T02:07:06;15.10;99.90
38902;DHT22;24661;53.566;9.910;2023-07-13T02:09:32;15.10;99.90
38902;DHT22;24661;53.566;9.910;2023-07-13T02:11:58;15.10;99.90
38902;DHT22;24661;53.566;9.910;2023-07-13T02:14:24;15.10;99.90
38902;DHT22;24661;53.566;9.910;2023-07-13T02:16:49;15.10;99.90
38902;DHT22;24661;53.566;9.910;2023-07-13T02:19:15;15.10;99.90
38902;DHT22;24661;53.566;9.910;2023-07-13T02:21:40;15.00;99.90
38902;DHT22;24661;53.566;9.910;2023-07-13T02:24:06;15.00;99.90
38902;DHT22;24661;53.566;9.910;2023-07-13T02:26:32;15.00;99.90
38902;DHT22;24661;53.566;9.910;2023-07-13T02:28:57;15.00;99.90
38902;DHT22;24661;53.566;9.910;2023-07-13T02:31:23;15.00;99.90
38902;DHT22;24661;53.566;9.910;2023-07-13T02:33:48;15.00;99.90
38902;DHT22;24661;53.566;9.910;2023-07-13T02:36:14;15.00;99.90
38902;DHT22;24661;53.566;9.910;2023-07-13T02:38:41;15.00;99.90
38902;DHT22;24661;53.566;9.910;2023-07-13T02:41:08;15.00;99.90
38902;DHT22;24661;53.566;9.910;2023-07-13T02:43:34;14.90;99.90
38902;DHT22;24661;53.566;9.910;2023-07-13T02:46:01;14.90;99.90
38902;DHT22;24661;53.566;9.910;2023-07-13T02:48:33;14.90;99.90
38902;DHT22;24661;53.566;9.910;2023-07-13T02:50:58;14.90;99.90
38902;DHT22;24661;53.566;9.910;2023-07-13T02:53:24;14.90;99.90
38902;DHT22;24661;53.566;9.910;2023-07-13T02:55:50;14.90;99.90
38902;DHT22;24661;53.566;9.910;2023-07-13T02:58:16;14.90;99.90
38902;DHT22;24661;53.566;9.910;2023-07-13T03:00:47;14.90;99.90
38902;DHT22;24661;53.566;9.910;2023-07-13T03:03:14;14.90;99.90
38902;DHT22;24661;53.566;9.910;2023-07-13T03:05:42;14.80;99.90
38902;DHT22;24661;53.566;9.910;2023-07-13T03:08:12;14.80;99.90
38902;DHT22;24661;53.566;9.910;2023-07-13T03:10:38;14.80;99.90
38902;DHT22;24661;53.566;9.910;2023-07-13T03:13:05;14.80;99.90
38902;DHT22;24661;53.566;9.910;2023-07-13T03:15:30;14.70;99.90
38902;DHT22;24661;53.566;9.910;2023-07-13T03:17:56;14.80;99.90
38902;DHT22;24661;53.566;9.910;2023-07-13T03:20:21;14.80;99.90
38902;DHT22;24661;53.566;9.910;2023-07-13T03:22:47;14.80;99.90
38902;DHT22;24661;53.566;9.910;2023-07-13T03:25:13;14.70;99.90
38902;DHT22;24661;53.566;9.910;2023-07-13T03:27:38;14.70;99.90
38902;DHT22;24661;53.566;9.910;2023-07-13T03:30:05;14.70;99.90
38902;DHT22;24661;53.566;9.910;2023-07-13T03:32:31;14.70;99.90
38902;DHT22;24661;53.566;9.910;2023-07-13T03:34:56;14.70;99.90
38902;DHT22;24661;53.566;9.910;2023-07-13T03:37:22;14.70;99.90
38902;DHT22;24661;53.566;9.910;2023-07-13T03:39:48;14.70;99.90
38902;DHT22;24661;53.566;9.910;2023-07-13T03:42:14;14.70;99.90
38902;DHT22;24661;53.566;9.910;2023-07-13T03:44:40;14.70;99.90
38902;DHT22;24661;53.566;9.910;2023-07-13T03:47:06;14.70;99.90
38902;DHT22;24661;53.566;9.910;2023-07-13T03:49:34;14.70;99.90
38902;DHT22;24661;53.566;9.910;2023-07-13T03:52:00;14.70;99.90
38902;DHT22;24661;53.566;9.910;2023-07-13T03:54:25;14.70;99.90
38902;DHT22;24661;53.566;9.910;2023-07-13T03:56:51;14.70;99.90
38902;DHT22;24661;53.566;9.910;2023-07-13T03:59:16;14.70;99.90
38902;DHT22;24661;53.566;9.910;2023-07-13T04:01:43;14.70;99.90
38902;DHT22;24661;53.566;9.910;2023-07-13T04:04:10;14.70;99.90
38902;DHT22;24661;53.566;9.910;2023-07-13T04:06:36;14.70;99.90
38902;DHT22;24661;53.566;9.910;2023-07-13T04:09:03;14.70;99.90
38902;DHT22;24661;53.566;9.910;2023-07-13T04:11:31;14.80;99.90
38902;DHT22;24661;53.566;9.910;2023-07-13T04:13:57;14.80;99.90
38902;DHT22;24661;53.566;9.910;2023-07-13T04:16:23;14.80;99.90
38902;DHT22;24661;53.566;9.910;2023-07-13T04:18:49;14.80;99.90
38902;DHT22;24661;53.566;9.910;2023-07-13T04:21:15;14.80;99.90
38902;DHT22;24661;53.566;9.910;2023-07-13T04:23:41;14.90;99.90
38902;DHT22;24661;53.566;9.910;2023-07-13T04:26:07;14.90;99.90
38902;DHT22;24661;53.566;9.910;2023-07-13T04:28:33;14.90;99.90
38902;DHT22;24661;53.566;9.910;2023-07-13T04:30:59;14.90;99.90
38902;DHT22;24661;53.566;9.910;2023-07-13T04:33:26;15.00;99.90
38902;DHT22;24661;53.566;9.910;2023-07-13T04:35:54;15.00;99.90
38902;DHT22;24661;53.566;9.910;2023-07-13T04:38:23;15.10;99.90
38902;DHT22;24661;53.566;9.910;2023-07-13T04:40:50;15.10;99.90
38902;DHT22;24661;53.566;9.910;2023-07-13T04:43:15;15.10;99.90
38902;DHT22;24661;53.566;9.910;2023-07-13T04:45:41;15.10;99.90
38902;DHT22;24661;53.566;9.910;2023-07-13T04:48:06;15.20;99.90
38902;DHT22;24661;53.566;9.910;2023-07-13T04:50:32;15.20;99.90
38902;DHT22;24661;53.566;9.910;2023-07-13T04:52:58;15.20;99.90
38902;DHT22;24661;53.566;9.910;2023-07-13T04:55:24;15.30;99.90
38902;DHT22;24661;53.566;9.910;2023-07-13T04:57:51;15.30;99.90
38902;DHT22;24661;53.566;9.910;2023-07-13T05:00:16;15.40;99.90
38902;DHT22;24661;53.566;9.910;2023-07-13T05:02:44;15.40;99.90
38902;DHT22;24661;53.566;9.910;2023-07-13T05:05:11;15.40;99.90
38902;DHT22;24661;53.566;9.910;2023-07-13T05:07:36;15.50;99.90
38902;DHT22;24661;53.566;9.910;2023-07-13T05:10:02;15.50;99.90
38902;DHT22;24661;53.566;9.910;2023-07-13T05:12:29;15.50;99.90
38902;DHT22;24661;53.566;9.910;2023-07-13T05:14:55;15.60;99.90
38902;DHT22;24661;53.566;9.910;2023-07-13T05:17:20;15.70;99.90
38902;DHT22;24661;53.566;9.910;2023-07-13T05:19:46;15.80;99.90
38902;DHT22;24661;53.566;9.910;2023-07-13T05:22:11;15.90;99.90
38902;DHT22;24661;53.566;9.910;2023-07-13T05:24:37;16.00;99.90
38902;DHT22;24661;53.566;9.910;2023-07-13T05:27:03;16.10;99.90
38902;DHT22;24661;53.566;9.910;2023-07-13T05:29:29;16.20;99.90
38902;DHT22;24661;53.566;9.910;2023-07-13T05:31:54;16.20;99.90
38902;DHT22;24661;53.566;9.910;2023-07-13T05:34:21;16.30;99.90
38902;DHT22;24661;53.566;9.910;2023-07-13T05:36:48;16.30;99.90
38902;DHT22;24661;53.566;9.910;2023-07-13T05:39:14;16.30;99.90
38902;DHT22;24661;53.566;9.910;2023-07-13T05:41:41;16.20;99.90
38902;DHT22;24661;53.566;9.910;2023-07-13T05:44:07;16.30;99.90
38902;DHT22;24661;53.566;9.910;2023-07-13T05:46:32;16.30;99.90
38902;DHT22;24661;53.566;9.910;2023-07-13T05:48:58;16.30;99.90
38902;DHT22;24661;53.566;9.910;2023-07-13T05:51:24;16.40;99.90
38902;DHT22;24661;53.566;9.910;2023-07-13T05:53:50;16.30;99.90
38902;DHT22;24661;53.566;9.910;2023-07-13T05:56:15;16.30;99.90
38902;DHT22;24661;53.566;9.910;2023-07-13T05:58:41;16.40;99.90
38902;DHT22;24661;53.566;9.910;2023-07-13T06:01:11;16.40;99.90
38902;DHT22;24661;53.566;9.910;2023-07-13T06:03:37;16.40;99.90
38902;DHT22;24661;53.566;9.910;2023-07-13T06:06:07;16.40;99.90
38902;DHT22;24661;53.566;9.910;2023-07-13T06:08:33;16.40;99.90
38902;DHT22;24661;53.566;9.910;2023-07-13T06:11:15;16.40;99.90
38902;DHT22;24661;53.566;9.910;2023-07-13T06:13:40;16.50;99.90
38902;DHT22;24661;53.566;9.910;2023-07-13T06:16:06;16.50;99.90
38902;DHT22;24661;53.566;9.910;2023-07-13T06:18:34;16.50;99.90
38902;DHT22;24661;53.566;9.910;2023-07-13T06:21:11;16.60;99.90
38902;DHT22;24661;53.566;9.910;2023-07-13T06:23:37;16.60;99.90
38902;DHT22;24661;53.566;9.910;2023-07-13T06:26:04;16.70;99.90
38902;DHT22;24661;53.566;9.910;2023-07-13T06:28:30;16.80;99.90
38902;DHT22;24661;53.566;9.910;2023-07-13T06:30:57;16.80;99.90
38902;DHT22;24661;53.566;9.910;2023-07-13T06:33:23;16.80;99.90
38902;DHT22;24661;53.566;9.910;2023-07-13T06:35:49;16.80;99.90
38902;DHT22;24661;53.566;9.910;2023-07-13T06:38:14;16.90;99.90
38902;DHT22;24661;53.566;9.910;2023-07-13T06:40:41;17.00;99.90
38902;DHT22;24661;53.566;9.910;2023-07-13T06:43:06;17.00;99.90
38902;DHT22;24661;53.566;9.910;2023-07-13T06:45:40;17.10;99.90
38902;DHT22;24661;53.566;9.910;2023-07-13T06:48:06;17.20;99.90
38902;DHT22;24661;53.566;9.910;2023-07-13T06:50:31;17.20;99.90
38902;DHT22;24661;53.566;9.910;2023-07-13T06:52:58;17.30;99.90
38902;DHT22;24661;53.566;9.910;2023-07-13T06:55:25;17.40;99.90
38902;DHT22;24661;53.566;9.910;2023-07-13T06:57:51;17.50;99.90
38902;DHT22;24661;53.566;9.910;2023-07-13T07:00:16;17.50;99.90
38902;DHT22;24661;53.566;9.910;2023-07-13T07:02:42;17.50;99.90
38902;DHT22;24661;53.566;9.910;2023-07-13T07:05:08;17.60;99.90
38902;DHT22;24661;53.566;9.910;2023-07-13T07:07:33;17.60;99.90
38902;DHT22;24661;53.566;9.910;2023-07-13T07:09:59;17.70;99.90
38902;DHT22;24661;53.566;9.910;2023-07-13T07:12:24;17.60;99.90
38902;DHT22;24661;53.566;9.910;2023-07-13T07:14:50;17.70;99.90
38902;DHT22;24661;53.566;9.910;2023-07-13T07:17:15;17.80;99.90
38902;DHT22;24661;53.566;9.910;2023-07-13T07:19:41;17.80;99.90
38902;DHT22;24661;53.566;9.910;2023-07-13T07:22:07;17.90;99.90
38902;DHT22;24661;53.566;9.910;2023-07-13T07:24:32;17.90;99.90
38902;DHT22;24661;53.566;9.910;2023-07-13T07:26:58;17.90;99.90
38902;DHT22;24661;53.566;9.910;2023-07-13T07:29:24;18.00;99.90
38902;DHT22;24661;53.566;9.910;2023-07-13T07:31:52;18.10;99.90
38902;DHT22;24661;53.566;9.910;2023-07-13T07:34:17;18.20;99.90
38902;DHT22;24661;53.566;9.910;2023-07-13T07:36:43;18.30;99.90
38902;DHT22;24661;53.566;9.910;2023-07-13T07:39:08;18.40;99.90
38902;DHT22;24661;53.566;9.910;2023-07-13T07:41:34;18.50;99.90
38902;DHT22;24661;53.566;9.910;2023-07-13T07:44:00;18.60;99.90
38902;DHT22;24661;53.566;9.910;2023-07-13T07:46:25;18.70;99.90
38902;DHT22;24661;53.566;9.910;2023-07-13T07:48:51;18.80;99.90
38902;DHT22;24661;53.566;9.910;2023-07-13T07:51:16;18.90;99.90
38902;DHT22;24661;53.566;9.910;2023-07-13T07:53:42;18.90;99.90
38902;DHT22;24661;53.566;9.910;2023-07-13T07:56:07;19.00;99.90
38902;DHT22;24661;53.566;9.910;2023-07-13T07:58:35;19.20;99.90
38902;DHT22;24661;53.566;9.910;2023-07-13T08:01:04;19.20;99.90
38902;DHT22;24661;53.566;9.910;2023-07-13T08:03:30;19.20;99.90
38902;DHT22;24661;53.566;9.910;2023-07-13T08:05:56;19.00;99.90
38902;DHT22;24661;53.566;9.910;2023-07-13T08:08:21;19.10;99.90
38902;DHT22;24661;53.566;9.910;2023-07-13T08:10:47;19.30;99.90
38902;DHT22;24661;53.566;9.910;2023-07-13T08:13:13;19.50;99.90
38902;DHT22;24661;53.566;9.910;2023-07-13T08:15:38;19.80;99.90
38902;DHT22;24661;53.566;9.910;2023-07-13T08:18:04;19.80;99.90
38902;DHT22;24661;53.566;9.910;2023-07-13T08:20:29;19.80;99.90
38902;DHT22;24661;53.566;9.910;2023-07-13T08:22:55;19.90;99.90
38902;DHT22;24661;53.566;9.910;2023-07-13T08:25:20;19.90;99.90
38902;DHT22;24661;53.566;9.910;2023-07-13T08:27:47;19.90;99.90
38902;DHT22;24661;53.566;9.910;2023-07-13T08:30:12;19.80;99.90
38902;DHT22;24661;53.566;9.910;2023-07-13T08:32:38;19.70;99.90
38902;DHT22;24661;53.566;9.910;2023-07-13T08:35:05;19.60;99.90
38902;DHT22;24661;53.566;9.910;2023-07-13T08:37:31;19.40;99.90
38902;DHT22;24661;53.566;9.910;2023-07-13T08:39:57;19.30;99.90
38902;DHT22;24661;53.566;9.910;2023-07-13T08:45:16;19.30;99.90
38902;DHT22;24661;53.566;9.910;2023-07-13T08:47:52;19.40;99.90
38902;DHT22;24661;53.566;9.910;2023-07-13T08:50:21;19.50;99.90
38902;DHT22;24661;53.566;9.910;2023-07-13T08:52:51;19.60;99.90
38902;DHT22;24661;53.566;9.910;2023-07-13T08:55:18;19.60;99.90
38902;DHT22;24661;53.566;9.910;2023-07-13T08:57:50;19.70;99.90
38902;DHT22;24661;53.566;9.910;2023-07-13T09:00:18;20.00;99.90
38902;DHT22;24661;53.566;9.910;2023-07-13T09:02:55;20.00;99.90
38902;DHT22;24661;53.566;9.910;2023-07-13T09:05:28;20.10;99.90
38902;DHT22;24661;53.566;9.910;2023-07-13T09:10:32;20.30;99.90
38902;DHT22;24661;53.566;9.910;2023-07-13T09:15:45;20.30;99.90
38902;DHT22;24661;53.566;9.910;2023-07-13T09:18:12;20.40;99.90
38902;DHT22;24661;53.566;9.910;2023-07-13T09:20:42;20.50;99.90
38902;DHT22;24661;53.566;9.910;2023-07-13T09:23:15;20.40;99.90
38902;DHT22;24661;53.566;9.910;2023-07-13T09:25:46;20.30;99.90
38902;DHT22;24661;53.566;9.910;2023-07-13T09:28:20;20.30;99.90
38902;DHT22;24661;53.566;9.910;2023-07-13T09:30:56;20.30;99.90
38902;DHT22;24661;53.566;9.910;2023-07-13T09:33:23;20.40;99.90
38902;DHT22;24661;53.566;9.910;2023-07-13T09:35:49;20.50;99.90
38902;DHT22;24661;53.566;9.910;2023-07-13T09:38:19;20.50;99.90
38902;DHT22;24661;53.566;9.910;2023-07-13T09:41:02;20.60;99.90
38902;DHT22;24661;53.566;9.910;2023-07-13T09:43:29;20.60;99.90
38902;DHT22;24661;53.566;9.910;2023-07-13T09:45:55;20.70;99.90
38902;DHT22;24661;53.566;9.910;2023-07-13T09:48:21;20.70;99.90
38902;DHT22;24661;53.566;9.910;2023-07-13T09:50:47;20.60;99.90
38902;DHT22;24661;53.566;9.910;2023-07-13T09:53:19;20.50;99.90
38902;DHT22;24661;53.566;9.910;2023-07-13T09:55:48;20.50;99.90
38902;DHT22;24661;53.566;9.910;2023-07-13T09:58:17;20.50;99.90
38902;DHT22;24661;53.566;9.910;2023-07-13T10:00:59;20.50;99.90
38902;DHT22;24661;53.566;9.910;2023-07-13T10:03:54;20.40;99.90
38902;DHT22;24661;53.566;9.910;2023-07-13T10:06:21;20.50;99.90
38902;DHT22;24661;53.566;9.910;2023-07-13T10:08:51;20.70;99.90
38902;DHT22;24661;53.566;9.910;2023-07-13T10:11:20;21.00;99.90
38902;DHT22;24661;53.566;9.910;2023-07-13T10:13:52;21.20;99.90
38902;DHT22;24661;53.566;9.910;2023-07-13T10:16:21;21.30;99.90
38902;DHT22;24661;53.566;9.910;2023-07-13T10:18:57;21.20;99.90
38902;DHT22;24661;53.566;9.910;2023-07-13T10:21:28;21.10;99.90
38902;DHT22;24661;53.566;9.910;2023-07-13T10:24:05;21.30;99.90
38902;DHT22;24661;53.566;9.910;2023-07-13T10:26:34;21.30;99.90
38902;DHT22;24661;53.566;9.910;2023-07-13T10:29:05;21.30;99.90
38902;DHT22;24661;53.566;9.910;2023-07-13T10:31:40;21.20;99.90
38902;DHT22;24661;53.566;9.910;2023-07-13T10:34:10;21.00;99.90
38902;DHT22;24661;53.566;9.910;2023-07-13T10:36:47;21.00;99.90
38902;DHT22;24661;53.566;9.910;2023-07-13T10:39:19;21.10;99.90
38902;DHT22;24661;53.566;9.910;2023-07-13T10:41:52;21.30;99.90
38902;DHT22;24661;53.566;9.910;2023-07-13T10:44:22;21.60;99.90
38902;DHT22;24661;53.566;9.910;2023-07-13T10:46:53;21.70;99.90
38902;DHT22;24661;53.566;9.910;2023-07-13T10:49:20;21.80;99.90
38902;DHT22;24661;53.566;9.910;2023-07-13T10:51:46;21.80;99.90
38902;DHT22;24661;53.566;9.910;2023-07-13T10:57:20;21.90;99.90
38902;DHT22;24661;53.566;9.910;2023-07-13T11:00:14;22.00;99.90
38902;DHT22;24661;53.566;9.910;2023-07-13T11:02:40;22.20;99.90
38902;DHT22;24661;53.566;9.910;2023-07-13T11:05:35;22.50;99.90
38902;DHT22;24661;53.566;9.910;2023-07-13T11:10:56;22.40;99.90
38902;DHT22;24661;53.566;9.910;2023-07-13T11:13:55;22.20;99.90
38902;DHT22;24661;53.566;9.910;2023-07-13T11:23:43;22.10;99.90
38902;DHT22;24661;53.566;9.910;2023-07-13T11:31:58;22.40;99.90
38902;DHT22;24661;53.566;9.910;2023-07-13T11:34:36;22.40;99.90
38902;DHT22;24661;53.566;9.910;2023-07-13T11:37:03;22.40;99.90
38902;DHT22;24661;53.566;9.910;2023-07-13T11:39:35;22.20;99.90
38902;DHT22;24661;53.566;9.910;2023-07-13T11:42:05;22.10;99.90
38902;DHT22;24661;53.566;9.910;2023-07-13T11:44:34;22.30;99.90
38902;DHT22;24661;53.566;9.910;2023-07-13T11:47:08;22.40;99.90
38902;DHT22;24661;53.566;9.910;2023-07-13T11:49:43;22.20;99.90
38902;DHT22;24661;53.566;9.910;2023-07-13T11:52:14;22.10;99.90
38902;DHT22;24661;53.566;9.910;2023-07-13T11:55:00;21.90;99.90
38902;DHT22;24661;53.566;9.910;2023-07-13T11:57:34;21.90;99.90
38902;DHT22;24661;53.566;9.910;2023-07-13T12:00:16;21.90;99.90
38902;DHT22;24661;53.566;9.910;2023-07-13T12:02:45;21.90;99.90
38902;DHT22;24661;53.566;9.910;2023-07-13T12:05:14;21.90;99.90
38902;DHT22;24661;53.566;9.910;2023-07-13T12:07:41;21.80;99.90
38902;DHT22;24661;53.566;9.910;2023-07-13T12:13:02;21.40;99.90
38902;DHT22;24661;53.566;9.910;2023-07-13T12:15:37;20.70;99.90
38902;DHT22;24661;53.566;9.910;2023-07-13T12:18:22;19.00;99.90
38902;DHT22;24661;53.566;9.910;2023-07-13T12:20:49;17.60;99.90
38902;DHT22;24661;53.566;9.910;2023-07-13T12:23:35;16.70;99.90
38902;DHT22;24661;53.566;9.910;2023-07-13T12:26:05;16.20;99.90
38902;DHT22;24661;53.566;9.910;2023-07-13T12:28:52;16.00;99.90
38902;DHT22;24661;53.566;9.910;2023-07-13T12:36:31;15.90;99.90
38902;DHT22;24661;53.566;9.910;2023-07-13T12:39:02;16.20;99.90
38902;DHT22;24661;53.566;9.910;2023-07-13T12:41:29;16.50;99.90
38902;DHT22;24661;53.566;9.910;2023-07-13T12:43:55;16.60;99.90
38902;DHT22;24661;53.566;9.910;2023-07-13T12:46:24;16.70;99.90
38902;DHT22;24661;53.566;9.910;2023-07-13T12:48:54;16.60;99.90
38902;DHT22;24661;53.566;9.910;2023-07-13T12:51:26;16.60;99.90
38902;DHT22;24661;53.566;9.910;2023-07-13T12:54:16;16.50;99.90
38902;DHT22;24661;53.566;9.910;2023-07-13T12:56:42;16.60;99.90
38902;DHT22;24661;53.566;9.910;2023-07-13T12:59:18;16.60;99.90
38902;DHT22;24661;53.566;9.910;2023-07-13T13:01:45;16.60;99.90
38902;DHT22;24661;53.566;9.910;2023-07-13T13:04:11;16.40;99.90
38902;DHT22;24661;53.566;9.910;2023-07-13T13:06:38;16.20;99.90
38902;DHT22;24661;53.566;9.910;2023-07-13T13:09:11;16.20;99.90
38902;DHT22;24661;53.566;9.910;2023-07-13T13:11:37;16.20;99.90
38902;DHT22;24661;53.566;9.910;2023-07-13T13:14:03;17.10;99.90
38902;DHT22;24661;53.566;9.910;2023-07-13T13:16:31;16.50;99.90
38902;DHT22;24661;53.566;9.910;2023-07-13T13:19:00;16.80;99.90
38902;DHT22;24661;53.566;9.910;2023-07-13T13:21:28;17.20;99.90
38902;DHT22;24661;53.566;9.910;2023-07-13T13:23:53;17.50;99.90
38902;DHT22;24661;53.566;9.910;2023-07-13T13:26:21;17.80;99.90
38902;DHT22;24661;53.566;9.910;2023-07-13T13:28:47;17.90;99.90
38902;DHT22;24661;53.566;9.910;2023-07-13T13:31:15;18.10;99.90
38902;DHT22;24661;53.566;9.910;2023-07-13T13:33:43;18.20;99.90
38902;DHT22;24661;53.566;9.910;2023-07-13T13:36:18;18.30;99.90
38902;DHT22;24661;53.566;9.910;2023-07-13T13:38:44;18.50;99.90
38902;DHT22;24661;53.566;9.910;2023-07-13T13:41:12;18.60;99.90
38902;DHT22;24661;53.566;9.910;2023-07-13T13:43:39;18.70;99.90
38902;DHT22;24661;53.566;9.910;2023-07-13T13:46:17;18.90;99.90
38902;DHT22;24661;53.566;9.910;2023-07-13T13:48:44;19.90;99.90
38902;DHT22;24661;53.566;9.910;2023-07-13T13:51:30;19.10;99.90
38902;DHT22;24661;53.566;9.910;2023-07-13T13:53:56;19.00;99.90
38902;DHT22;24661;53.566;9.910;2023-07-13T13:56:22;19.00;99.90
38902;DHT22;24661;53.566;9.910;2023-07-13T13:58:48;18.90;99.90
38902;DHT22;24661;53.566;9.910;2023-07-13T14:01:17;18.90;99.90
38902;DHT22;24661;53.566;9.910;2023-07-13T14:03:43;18.90;99.90
38902;DHT22;24661;53.566;9.910;2023-07-13T14:06:18;19.00;99.90
38902;DHT22;24661;53.566;9.910;2023-07-13T14:08:44;18.70;99.90
38902;DHT22;24661;53.566;9.910;2023-07-13T14:11:12;19.20;99.90
38902;DHT22;24661;53.566;9.910;2023-07-13T14:13:42;19.30;99.90
38902;DHT22;24661;53.566;9.910;2023-07-13T14:16:14;19.20;99.90
38902;DHT22;24661;53.566;9.910;2023-07-13T14:18:41;19.10;99.90
38902;DHT22;24661;53.566;9.910;2023-07-13T14:21:18;19.00;99.90
38902;DHT22;24661;53.566;9.910;2023-07-13T14:23:45;19.00;99.90
38902;DHT22;24661;53.566;9.910;2023-07-13T14:26:13;19.10;99.90
38902;DHT22;24661;53.566;9.910;2023-07-13T14:28:42;19.20;99.90
38902;DHT22;24661;53.566;9.910;2023-07-13T14:31:09;19.10;99.90
38902;DHT22;24661;53.566;9.910;2023-07-13T14:33:34;19.20;99.90
38902;DHT22;24661;53.566;9.910;2023-07-13T14:36:00;19.40;99.90
38902;DHT22;24661;53.566;9.910;2023-07-13T14:38:27;19.40;99.90
38902;DHT22;24661;53.566;9.910;2023-07-13T14:40:52;19.40;99.90
38902;DHT22;24661;53.566;9.910;2023-07-13T14:43:18;19.40;99.90
38902;DHT22;24661;53.566;9.910;2023-07-13T14:45:49;19.40;99.90
38902;DHT22;24661;53.566;9.910;2023-07-13T14:48:21;19.30;99.90
38902;DHT22;24661;53.566;9.910;2023-07-13T14:50:54;19.20;99.90
38902;DHT22;24661;53.566;9.910;2023-07-13T14:53:21;19.00;99.90
38902;DHT22;24661;53.566;9.910;2023-07-13T14:55:48;19.00;99.90
38902;DHT22;24661;53.566;9.910;2023-07-13T14:58:14;18.80;99.90
38902;DHT22;24661;53.566;9.910;2023-07-13T15:00:40;18.80;99.90
38902;DHT22;24661;53.566;9.910;2023-07-13T15:03:06;18.80;99.90
38902;DHT22;24661;53.566;9.910;2023-07-13T15:05:40;18.90;99.90
38902;DHT22;24661;53.566;9.910;2023-07-13T15:08:05;19.00;99.90
38902;DHT22;24661;53.566;9.910;2023-07-13T15:10:33;19.10;99.90
38902;DHT22;24661;53.566;9.910;2023-07-13T15:13:00;19.30;99.90
38902;DHT22;24661;53.566;9.910;2023-07-13T15:15:30;19.50;99.90
38902;DHT22;24661;53.566;9.910;2023-07-13T15:17:57;19.50;99.90
38902;DHT22;24661;53.566;9.910;2023-07-13T15:20:33;19.40;99.90
38902;DHT22;24661;53.566;9.910;2023-07-13T15:23:01;19.40;99.90
38902;DHT22;24661;53.566;9.910;2023-07-13T15:25:28;19.50;99.90
38902;DHT22;24661;53.566;9.910;2023-07-13T15:27:56;19.40;99.90
38902;DHT22;24661;53.566;9.910;2023-07-13T15:30:23;19.40;99.90
38902;DHT22;24661;53.566;9.910;2023-07-13T15:32:50;19.50;99.90
38902;DHT22;24661;53.566;9.910;2023-07-13T15:35:21;19.40;99.90
38902;DHT22;24661;53.566;9.910;2023-07-13T15:37:48;19.30;99.90
38902;DHT22;24661;53.566;9.910;2023-07-13T15:40:14;19.50;99.90
38902;DHT22;24661;53.566;9.910;2023-07-13T15:42:41;19.40;99.90
38902;DHT22;24661;53.566;9.910;2023-07-13T15:45:15;19.70;99.90
38902;DHT22;24661;53.566;9.910;2023-07-13T15:47:42;19.70;99.90
38902;DHT22;24661;53.566;9.910;2023-07-13T15:50:14;19.70;99.90
38902;DHT22;24661;53.566;9.910;2023-07-13T15:52:40;19.60;99.90
38902;DHT22;24661;53.566;9.910;2023-07-13T15:55:10;19.60;99.90
38902;DHT22;24661;53.566;9.910;2023-07-13T15:57:37;19.70;99.90
38902;DHT22;24661;53.566;9.910;2023-07-13T16:00:03;19.70;99.90
38902;DHT22;24661;53.566;9.910;2023-07-13T16:02:31;19.80;99.90
38902;DHT22;24661;53.566;9.910;2023-07-13T16:04:56;19.80;99.90
38902;DHT22;24661;53.566;9.910;2023-07-13T16:07:22;19.70;99.90
38902;DHT22;24661;53.566;9.910;2023-07-13T16:09:48;19.60;99.90
38902;DHT22;24661;53.566;9.910;2023-07-13T16:12:15;19.60;99.90
38902;DHT22;24661;53.566;9.910;2023-07-13T16:14:42;19.50;99.90
38902;DHT22;24661;53.566;9.910;2023-07-13T16:17:11;19.40;99.90